Date,TemperatureHighF,TemperatureAvgF,TemperatureLowF,DewpointHighF,DewpointAvgF,DewpointLowF,HumidityHigh,HumidityAvg,HumidityLow,PressureMaxIn,PressureMinIn,WindSpeedMaxMPH,WindSpeedAvgMPH,GustSpeedMaxMPH,PrecipitationSumIn
2013-5-1,90.7,71.0,51.8,62.3,55.3,46.2,86,60,35,30.22,30.08,12,1,12,0.00
2013-5-2,84.6,69.6,57.4,60.3,54.9,50.9,80,61,41,30.24,30.12,15,2,15,0.00
2013-5-3,79.0,67.7,59.9,61.8,55.9,46.0,78,67,50,30.13,29.97,20,2,20,0.00
2013-5-4,75.6,64.0,55.6,51.9,47.4,43.0,76,56,41,30.07,30.00,16,2,16,0.00
2013-5-5,67.5,58.6,52.0,52.7,49.7,46.7,88,73,55,30.07,30.02,20,2,20,0.00
2013-5-6,76.5,62.8,52.2,57.5,51.1,44.5,81,66,51,30.04,29.97,15,1,15,0.00
2013-5-7,84.4,67.3,56.8,58.6,54.3,51.1,85,65,40,30.08,30.00,13,0,13,0.00
2013-5-8,85.3,68.1,53.2,59.7,53.1,48.2,87,62,34,30.09,30.00,11,0,11,0.00
2013-5-9,81.0,64.8,57.0,58.1,54.1,50.1,88,70,40,30.07,29.93,19,1,19,0.45
2013-5-10,68.2,59.9,46.0,60.8,54.7,41.8,91,83,72,29.99,29.88,15,2,15,0.00
2013-5-11,65.3,49.3,41.9,53.0,42.8,32.9,90,79,57,30.08,29.90,24,1,24,0.00
2013-5-12,57.4,45.4,34.0,34.2,31.1,26.9,84,60,37,30.18,30.07,18,1,18,0.00
2013-5-13,70.3,50.4,34.7,37.4,31.3,15.7,80,52,26,30.24,30.14,16,0,16,0.00
2013-5-14,89.4,67.7,48.0,62.4,48.6,31.8,62,51,41,30.15,29.84,24,3,24,0.00
2013-5-15,87.1,76.6,69.6,62.0,58.0,52.7,65,53,40,29.92,29.83,21,3,21,0.00
2013-5-16,86.0,71.6,61.3,61.7,56.5,48.8,88,62,33,30.03,29.89,9,0,9,0.26
2013-5-17,86.5,67.4,57.0,67.5,58.1,48.4,89,73,50,30.12,30.02,13,1,13,0.49
2013-5-18,84.4,69.7,60.6,68.1,61.8,57.4,91,77,55,30.14,30.03,10,1,10,0.00
2013-5-19,91.6,74.3,60.4,70.6,63.5,57.2,91,71,46,30.05,29.91,12,1,12,0.00
2013-5-20,86.5,76.9,68.9,69.8,66.5,61.7,90,71,55,29.99,29.87,22,3,22,0.02
2013-5-21,87.6,74.2,62.8,66.7,62.9,58.9,87,70,45,29.92,29.81,21,5,21,0.02
2013-5-22,74.7,68.3,61.2,63.5,60.5,42.0,86,76,42,29.85,29.78,22,3,22,0.22
2013-5-23,63.7,56.6,44.4,57.4,51.3,39.6,89,82,70,30.24,29.84,20,2,20,0.00
2013-5-24,69.1,52.3,40.3,45.0,40.4,36.8,89,67,37,30.43,30.24,14,2,14,0.00
2013-5-25,62.8,52.7,40.3,47.2,40.8,32.1,81,65,49,30.44,30.28,7,0,7,0.00
2013-5-26,73.0,58.2,44.1,52.7,46.6,36.8,83,67,44,30.36,30.22,10,0,10,0.04
2013-5-27,67.3,60.3,53.4,63.7,56.1,50.5,92,86,77,30.24,29.95,20,2,20,1.39
2013-5-28,80.4,70.9,61.0,68.9,64.2,58.7,93,80,64,30.00,29.92,22,4,22,0.00
2013-5-29,88.7,76.7,69.1,67.8,62.9,44.7,76,63,39,30.08,29.98,23,4,23,0.00
2013-5-30,89.2,76.7,65.8,69.2,64.6,59.3,83,67,49,30.11,29.98,23,3,23,0.00
2013-5-31,76.8,71.6,64.2,68.6,65.4,44.7,91,81,72,30.05,29.90,19,3,19,0.33